Time;durP1;ratioP1;P1;durP2;ratioP2;P2;SDS_P1;SDS_P2;PMS_P1;PMS_P2;Temp;Humidity;BMP_temperature;BMP_pressure;BME280_temperature;BME280_humidity;BME280_pressure;Samples;Min_cycle;Max_cycle;Signal;HPM_P1;HPM_P2
2021/04/29 00:00:53;;;;;;;12.80;8.57;;;;;;;;;;10358998;28;20048;-58
2021/04/29 00:05:51;;;;;;;13.02;9.18;;;;;;;;;;10358625;28;20075;-59
2021/04/29 00:10:54;;;;;;;12.13;10.18;;;;;;;;;;10358531;28;20051;-58
2021/04/29 00:15:51;;;;;;;12.05;9.48;;;;;;;;;;10358184;28;20048;-58
2021/04/29 00:20:54;;;;;;;12.18;9.60;;;;;;;;;;10358001;28;20055;-58
2021/04/29 00:25:52;;;;;;;12.38;10.00;;;;;;;;;;10358766;28;20084;-59
2021/04/29 00:30:50;;;;;;;11.85;8.32;;;;;;;;;;10358077;28;20048;-59
2021/04/29 00:35:47;;;;;;;12.02;9.38;;;;;;;;;;10357640;28;20568;-58
2021/04/29 00:40:45;;;;;;;10.23;9.13;;;;;;;;;;10357795;28;20051;-59
2021/04/29 00:45:43;;;;;;;14.30;10.82;;;;;;;;;;10357741;28;20083;-59
2021/04/29 00:50:40;;;;;;;15.70;10.18;;;;;;;;;;10357498;28;20429;-59
2021/04/29 00:55:38;;;;;;;12.43;10.10;;;;;;;;;;10357085;28;20516;-58
2021/04/29 01:00:37;;;;;;;15.65;9.40;;;;;;;;;;10357596;28;20055;-58
2021/04/29 01:05:37;;;;;;;14.30;9.50;;;;;;;;;;10357163;28;20075;-59
2021/04/29 01:10:36;;;;;;;12.13;8.85;;;;;;;;;;10356596;28;20041;-59
2021/04/29 01:15:34;;;;;;;13.40;9.52;;;;;;;;;;10358098;28;20044;-59
2021/04/29 01:20:36;;;;;;;12.70;9.23;;;;;;;;;;10357885;28;20040;-58
2021/04/29 01:25:35;;;;;;;10.30;8.90;;;;;;;;;;10356694;28;20071;-59
2021/04/29 01:30:33;;;;;;;15.55;9.98;;;;;;;;;;10356656;28;20072;-59
2021/04/29 01:35:31;;;;;;;14.35;10.15;;;;;;;;;;10357545;28;20051;-59
2021/04/29 01:40:28;;;;;;;10.98;9.82;;;;;;;;;;10357629;28;20043;-59
2021/04/29 01:45:26;;;;;;;14.77;10.23;;;;;;;;;;10357603;28;20076;-59
2021/04/29 01:50:24;;;;;;;11.98;9.85;;;;;;;;;;10357306;28;20048;-59
2021/04/29 01:55:23;;;;;;;11.77;9.02;;;;;;;;;;10358458;28;20507;-59
2021/04/29 02:00:21;;;;;;;9.95;8.95;;;;;;;;;;10364058;28;20110;-59
2021/04/29 02:05:18;;;;;;;10.90;8.95;;;;;;;;;;10364566;28;20071;-59
2021/04/29 02:10:17;;;;;;;15.98;10.20;;;;;;;;;;10364433;28;20048;-59
2021/04/29 02:15:15;;;;;;;12.90;9.88;;;;;;;;;;10364488;28;20086;-59
2021/04/29 02:20:13;;;;;;;11.38;10.02;;;;;;;;;;10364138;28;20086;-59
2021/04/29 02:25:12;;;;;;;14.90;9.50;;;;;;;;;;10363984;28;20457;-59
2021/04/29 02:30:11;;;;;;;14.13;9.82;;;;;;;;;;10361862;28;20078;-59
2021/04/29 02:35:09;;;;;;;14.70;8.95;;;;;;;;;;10363608;28;20084;-58
2021/04/29 02:40:08;;;;;;;13.30;9.38;;;;;;;;;;10363234;28;20103;-59
2021/04/29 02:45:07;;;;;;;14.60;9.73;;;;;;;;;;10363040;28;20532;-59
2021/04/29 02:50:09;;;;;;;10.43;8.98;;;;;;;;;;10362912;28;20044;-59
2021/04/29 02:55:07;;;;;;;12.48;9.80;;;;;;;;;;10362865;28;20143;-59
2021/04/29 03:00:05;;;;;;;10.85;9.27;;;;;;;;;;10361740;28;20048;-59
2021/04/29 03:05:03;;;;;;;10.68;9.45;;;;;;;;;;10361758;28;20079;-58
2021/04/29 03:10:01;;;;;;;12.65;10.27;;;;;;;;;;10360548;28;20059;-60
2021/04/29 03:14:59;;;;;;;17.92;13.27;;;;;;;;;;10361782;28;20048;-59
2021/04/29 03:19:57;;;;;;;18.15;14.30;;;;;;;;;;10361687;28;20533;-59
2021/04/29 03:24:55;;;;;;;17.88;14.18;;;;;;;;;;10360175;28;20075;-58
2021/04/29 03:29:54;;;;;;;16.60;14.88;;;;;;;;;;10361114;28;20091;-59
2021/04/29 03:34:51;;;;;;;16.80;15.10;;;;;;;;;;10360914;28;20504;-58
2021/04/29 03:39:49;;;;;;;22.08;16.73;;;;;;;;;;10359631;28;20075;-59
2021/04/29 03:44:46;;;;;;;23.88;21.27;;;;;;;;;;10354292;28;20087;-58
2021/04/29 03:49:45;;;;;;;20.77;16.77;;;;;;;;;;10355707;28;20079;-58
2021/04/29 03:54:42;;;;;;;21.35;16.58;;;;;;;;;;10356273;28;20072;-58
2021/04/29 03:59:39;;;;;;;17.30;15.50;;;;;;;;;;10359763;28;20507;-59
2021/04/29 04:04:37;;;;;;;17.92;15.10;;;;;;;;;;10359703;28;20067;-60
2021/04/29 04:09:35;;;;;;;16.33;14.35;;;;;;;;;;10359632;28;20082;-59
2021/04/29 04:14:32;;;;;;;23.63;16.13;;;;;;;;;;10359591;28;20178;-60
2021/04/29 04:19:30;;;;;;;24.08;17.42;;;;;;;;;;10356906;28;20501;-59
2021/04/29 04:24:28;;;;;;;27.25;18.50;;;;;;;;;;10358864;28;20072;-59
2021/04/29 04:29:26;;;;;;;22.27;16.38;;;;;;;;;;10359226;28;20043;-60
2021/04/29 04:34:24;;;;;;;33.58;24.20;;;;;;;;;;10358853;28;20048;-60
2021/04/29 04:39:21;;;;;;;46.10;31.98;;;;;;;;;;10358742;28;20048;-60
2021/04/29 04:44:18;;;;;;;26.85;19.38;;;;;;;;;;10356825;28;20090;-59
2021/04/29 04:49:17;;;;;;;22.70;17.17;;;;;;;;;;10358218;28;20055;-57
2021/04/29 04:54:16;;;;;;;39.13;21.10;;;;;;;;;;10354354;28;20095;-59
2021/04/29 04:59:13;;;;;;;18.50;15.27;;;;;;;;;;10352852;28;20086;-60
2021/04/29 05:04:11;;;;;;;22.05;19.70;;;;;;;;;;10353673;28;20074;-60
2021/04/29 05:09:09;;;;;;;22.13;16.45;;;;;;;;;;10357753;28;20044;-60
2021/04/29 05:14:06;;;;;;;26.27;17.98;;;;;;;;;;10357803;28;20032;-59
2021/04/29 05:19:08;;;;;;;21.90;16.85;;;;;;;;;;10357652;28;20044;-59
2021/04/29 05:24:06;;;;;;;28.98;22.20;;;;;;;;;;10357774;28;20465;-60
2021/04/29 05:29:05;;;;;;;23.40;17.73;;;;;;;;;;10357762;28;20051;-60
2021/04/29 05:34:03;;;;;;;26.17;19.00;;;;;;;;;;10363749;28;20043;-60
2021/04/29 05:39:00;;;;;;;26.10;19.33;;;;;;;;;;10365455;28;20040;-60
2021/04/29 05:43:57;;;;;;;27.13;18.45;;;;;;;;;;10365275;28;20075;-60
2021/04/29 05:48:55;;;;;;;22.90;17.08;;;;;;;;;;10362888;28;20048;-60
2021/04/29 05:53:53;;;;;;;24.58;19.30;;;;;;;;;;10364892;28;20040;-60
2021/04/29 05:58:50;;;;;;;34.53;25.95;;;;;;;;;;10363900;28;20080;-59
2021/04/29 06:03:48;;;;;;;22.67;19.20;;;;;;;;;;10363534;28;20063;-60
2021/04/29 06:08:46;;;;;;;25.40;20.73;;;;;;;;;;10364512;28;20069;-60
2021/04/29 06:13:44;;;;;;;29.15;22.23;;;;;;;;;;10363976;28;20039;-60
2021/04/29 06:18:42;;;;;;;27.65;21.10;;;;;;;;;;10363904;28;20032;-59
2021/04/29 06:23:39;;;;;;;30.90;23.73;;;;;;;;;;10362183;28;20074;-59
2021/04/29 06:28:38;;;;;;;32.65;22.75;;;;;;;;;;10363407;28;20044;-59
2021/04/29 06:33:35;;;;;;;30.15;22.42;;;;;;;;;;10363026;28;20047;-59
2021/04/29 06:38:34;;;;;;;30.63;21.08;;;;;;;;;;10362278;28;20040;-60
2021/04/29 06:43:32;;;;;;;27.02;20.15;;;;;;;;;;10362144;28;20110;-59
2021/04/29 06:48:31;;;;;;;24.52;20.02;;;;;;;;;;10361209;28;20512;-60
2021/04/29 06:53:28;;;;;;;27.85;22.30;;;;;;;;;;10362379;28;20055;-59
2021/04/29 06:58:27;;;;;;;36.97;26.23;;;;;;;;;;10361340;28;20091;-60
2021/04/29 07:03:24;;;;;;;38.85;27.08;;;;;;;;;;10361590;28;20079;-60
2021/04/29 07:08:23;;;;;;;40.35;27.90;;;;;;;;;;10362081;28;20079;-60
2021/04/29 07:13:20;;;;;;;37.72;26.95;;;;;;;;;;10361434;28;20059;-60
2021/04/29 07:18:20;;;;;;;22.73;18.15;;;;;;;;;;10361578;28;20040;-60
2021/04/29 07:23:17;;;;;;;20.63;17.50;;;;;;;;;;10361239;28;20562;-59
2021/04/29 07:28:15;;;;;;;19.10;17.10;;;;;;;;;;10361474;28;20087;-59
2021/04/29 07:33:13;;;;;;;17.02;14.57;;;;;;;;;;10360799;28;20040;-59
2021/04/29 07:38:10;;;;;;;17.55;15.52;;;;;;;;;;10361081;28;20051;-58
2021/04/29 07:43:08;;;;;;;17.23;15.05;;;;;;;;;;10360239;28;20064;-60
2021/04/29 07:48:06;;;;;;;30.15;26.95;;;;;;;;;;10360200;28;20036;-59
2021/04/29 07:53:04;;;;;;;29.08;23.60;;;;;;;;;;10359112;28;20051;-60
2021/04/29 07:58:01;;;;;;;24.48;19.30;;;;;;;;;;10359232;28;20440;-60
2021/04/29 08:03:04;;;;;;;17.90;15.10;;;;;;;;;;10359565;28;20079;-60
2021/04/29 08:08:02;;;;;;;17.52;14.93;;;;;;;;;;10359230;28;20052;-60
2021/04/29 08:13:00;;;;;;;17.20;15.45;;;;;;;;;;10359098;28;20054;-59
2021/04/29 08:17:57;;;;;;;20.90;17.05;;;;;;;;;;10359120;28;20076;-59
2021/04/29 08:22:55;;;;;;;21.70;15.40;;;;;;;;;;10358341;28;20079;-60
2021/04/29 08:27:53;;;;;;;16.30;14.52;;;;;;;;;;10358706;28;20048;-60
2021/04/29 08:32:50;;;;;;;21.42;19.10;;;;;;;;;;10358383;28;20079;-59
2021/04/29 08:37:48;;;;;;;15.52;13.95;;;;;;;;;;10358526;28;20040;-59
2021/04/29 08:42:45;;;;;;;15.80;14.18;;;;;;;;;;10358218;28;20146;-60
2021/04/29 08:47:47;;;;;;;16.63;14.93;;;;;;;;;;10358308;28;20043;-60
2021/04/29 08:52:45;;;;;;;17.30;14.13;;;;;;;;;;10358619;28;20048;-60
2021/04/29 08:57:43;;;;;;;20.33;18.17;;;;;;;;;;10357559;28;20048;-60
2021/04/29 09:02:40;;;;;;;35.88;24.70;;;;;;;;;;10357840;28;20048;-60
2021/04/29 09:07:39;;;;;;;17.95;15.65;;;;;;;;;;10368786;28;20516;-60
2021/04/29 09:12:43;;;;;;;15.05;13.55;;;;;;;;;;10371758;28;20070;-60
2021/04/29 09:17:40;;;;;;;14.77;13.23;;;;;;;;;;10371242;28;20480;-59
2021/04/29 09:22:38;;;;;;;16.50;14.77;;;;;;;;;;10371639;28;20512;-60
2021/04/29 09:27:36;;;;;;;18.45;16.55;;;;;;;;;;10371303;28;20083;-60
2021/04/29 09:32:35;;;;;;;28.95;23.92;;;;;;;;;;10370847;28;20047;-60
2021/04/29 09:37:33;;;;;;;22.33;20.13;;;;;;;;;;10370316;28;20083;-60
2021/04/29 09:42:33;;;;;;;26.77;24.23;;;;;;;;;;10370609;28;20044;-60
2021/04/29 09:47:31;;;;;;;31.55;28.38;;;;;;;;;;10370570;28;20090;-58
2021/04/29 09:52:28;;;;;;;22.27;19.88;;;;;;;;;;10370434;28;20095;-58
2021/04/29 09:57:27;;;;;;;17.33;15.40;;;;;;;;;;10369877;28;20425;-60
2021/04/29 10:02:25;;;;;;;13.63;11.30;;;;;;;;;;10370390;28;20040;-60
2021/04/29 10:07:24;;;;;;;13.75;12.35;;;;;;;;;;10370069;28;20075;-60
2021/04/29 10:12:24;;;;;;;11.40;10.20;;;;;;;;;;10369734;28;20517;-60
2021/04/29 10:17:22;;;;;;;14.18;11.77;;;;;;;;;;10366259;28;20055;-60
2021/04/29 10:22:20;;;;;;;13.98;12.00;;;;;;;;;;10363344;28;20047;-60
2021/04/29 10:27:19;;;;;;;12.13;10.93;;;;;;;;;;10363037;28;20083;-60
2021/04/29 10:32:16;;;;;;;14.43;13.00;;;;;;;;;;10363068;28;20068;-59
2021/04/29 10:37:14;;;;;;;18.23;16.33;;;;;;;;;;10362772;28;20473;-59
2021/04/29 10:42:12;;;;;;;15.57;11.68;;;;;;;;;;10362858;28;20052;-59
2021/04/29 10:47:20;;;;;;;13.93;11.73;;;;;;;;;;10362278;28;20083;-59
2021/04/29 10:52:18;;;;;;;13.15;11.52;;;;;;;;;;10362958;28;20492;-59
2021/04/29 10:57:16;;;;;;;16.77;13.77;;;;;;;;;;10361581;28;20063;-59
2021/04/29 11:02:25;;;;;;;23.13;18.77;;;;;;;;;;10362330;28;20082;-61
2021/04/29 11:07:23;;;;;;;19.02;12.68;;;;;;;;;;10361941;28;20087;-59
2021/04/29 11:12:21;;;;;;;32.55;24.75;;;;;;;;;;10361811;28;20044;-59
2021/04/29 11:17:19;;;;;;;11.32;10.23;;;;;;;;;;10361286;28;20090;-59
2021/04/29 11:22:23;;;;;;;12.52;11.15;;;;;;;;;;10361028;28;20048;-60
2021/04/29 11:27:30;;;;;;;14.70;11.48;;;;;;;;;;10360338;28;20079;-59
2021/04/29 11:32:28;;;;;;;19.48;15.05;;;;;;;;;;10360735;28;20040;-60
2021/04/29 11:37:27;;;;;;;24.52;19.25;;;;;;;;;;10360536;28;20050;-59
2021/04/29 11:42:25;;;;;;;12.85;11.02;;;;;;;;;;10360267;28;20405;-60
2021/04/29 11:47:22;;;;;;;13.23;9.70;;;;;;;;;;10359962;28;20531;-60
2021/04/29 11:52:21;;;;;;;14.90;10.75;;;;;;;;;;10359833;28;20493;-59
2021/04/29 11:57:20;;;;;;;13.98;9.45;;;;;;;;;;10359267;28;20091;-59
2021/04/29 12:02:18;;;;;;;12.00;9.23;;;;;;;;;;10358813;28;20428;-59
2021/04/29 12:07:15;;;;;;;16.85;10.52;;;;;;;;;;10359266;28;20083;-59
2021/04/29 12:12:14;;;;;;;26.52;19.45;;;;;;;;;;10359150;28;20040;-59
2021/04/29 12:17:12;;;;;;;10.02;9.02;;;;;;;;;;10358857;28;20051;-58
2021/04/29 12:22:13;;;;;;;14.13;11.25;;;;;;;;;;10359054;28;20044;-60
2021/04/29 12:27:11;;;;;;;17.98;15.10;;;;;;;;;;10358492;28;20075;-59
2021/04/29 12:32:09;;;;;;;13.30;10.00;;;;;;;;;;10358693;28;20072;-59
2021/04/29 12:37:08;;;;;;;10.98;9.82;;;;;;;;;;10358464;28;20043;-59
2021/04/29 12:42:09;;;;;;;13.23;10.93;;;;;;;;;;10357567;28;20040;-60
2021/04/29 12:47:08;;;;;;;12.45;11.10;;;;;;;;;;10358041;28;20043;-60
2021/04/29 12:52:13;;;;;;;12.88;10.55;;;;;;;;;;10357894;28;20055;-59
2021/04/29 12:57:10;;;;;;;10.45;9.35;;;;;;;;;;10357263;28;20085;-60
2021/04/29 13:02:08;;;;;;;18.13;11.27;;;;;;;;;;10357663;28;20067;-60
2021/04/29 13:07:07;;;;;;;14.07;11.65;;;;;;;;;;10357359;28;20134;-60
2021/04/29 13:12:10;;;;;;;10.35;9.23;;;;;;;;;;10357138;28;20515;-59
2021/04/29 13:17:12;;;;;;;12.27;9.82;;;;;;;;;;10356889;28;20118;-60
2021/04/29 13:22:10;;;;;;;12.18;9.85;;;;;;;;;;10358046;28;20059;-60
2021/04/29 13:27:07;;;;;;;11.73;10.52;;;;;;;;;;10357618;28;20090;-60
2021/04/29 13:32:07;;;;;;;10.52;9.35;;;;;;;;;;10356949;28;20064;-59
2021/04/29 13:37:05;;;;;;;14.45;13.05;;;;;;;;;;10357247;28;20059;-59
2021/04/29 13:42:04;;;;;;;10.88;9.82;;;;;;;;;;10357203;28;20417;-59
2021/04/29 13:47:01;;;;;;;12.15;9.90;;;;;;;;;;10356355;28;20051;-59
2021/04/29 13:52:00;;;;;;;13.40;9.52;;;;;;;;;;10358752;28;20080;-59
2021/04/29 13:56:58;;;;;;;10.82;9.75;;;;;;;;;;10363948;28;20075;-60
2021/04/29 14:01:56;;;;;;;17.20;11.80;;;;;;;;;;10363901;28;20047;-60
2021/04/29 14:06:53;;;;;;;9.57;8.57;;;;;;;;;;10364425;28;20086;-60
2021/04/29 14:11:52;;;;;;;10.50;9.15;;;;;;;;;;10364031;28;20036;-60
2021/04/29 14:16:51;;;;;;;9.82;8.82;;;;;;;;;;10363802;28;20035;-59
2021/04/29 14:21:50;;;;;;;10.30;9.13;;;;;;;;;;10363284;28;20508;-60
2021/04/29 14:26:47;;;;;;;11.07;9.15;;;;;;;;;;10363035;28;20493;-59
2021/04/29 14:31:45;;;;;;;24.73;15.80;;;;;;;;;;10357160;28;20126;-59
2021/04/29 14:36:43;;;;;;;23.70;16.30;;;;;;;;;;10336923;28;20065;-58
2021/04/29 14:41:40;;;;;;;26.83;21.40;;;;;;;;;;10347555;28;20059;-58
2021/04/29 14:46:37;;;;;;;25.55;22.85;;;;;;;;;;10331852;28;20536;-59
2021/04/29 14:51:38;;;;;;;16.20;14.48;;;;;;;;;;10320738;28;20044;-59
2021/04/29 14:56:35;;;;;;;15.95;14.25;;;;;;;;;;10320215;28;20057;-59
2021/04/29 15:01:33;;;;;;;16.52;12.63;;;;;;;;;;10320429;28;20081;-59
2021/04/29 15:06:30;;;;;;;36.22;28.75;;;;;;;;;;10319956;28;20075;-60
2021/04/29 15:11:28;;;;;;;57.25;50.22;;;;;;;;;;10319954;28;20457;-60
2021/04/29 15:16:26;;;;;;;24.65;20.88;;;;;;;;;;10317991;28;20076;-59
2021/04/29 15:21:23;;;;;;;119.95;99.60;;;;;;;;;;10319243;28;20456;-57
2021/04/29 15:26:21;;;;;;;60.80;52.35;;;;;;;;;;10318725;28;20524;-57
2021/04/29 15:31:19;;;;;;;19.98;17.38;;;;;;;;;;10318885;28;20068;-57
2021/04/29 15:36:16;;;;;;;27.17;23.85;;;;;;;;;;10318821;28;20536;-58
2021/04/29 15:41:14;;;;;;;26.13;23.33;;;;;;;;;;10319101;28;20040;-57
2021/04/29 15:46:11;;;;;;;19.48;17.02;;;;;;;;;;10318255;28;20075;-58
2021/04/29 15:51:15;;;;;;;30.30;25.10;;;;;;;;;;10318057;28;20485;-58
2021/04/29 15:56:13;;;;;;;22.10;14.40;;;;;;;;;;10317933;28;20041;-58
2021/04/29 16:01:10;;;;;;;15.77;12.43;;;;;;;;;;10318236;28;20060;-59
2021/04/29 16:06:08;;;;;;;17.30;15.40;;;;;;;;;;10317797;28;20076;-59
2021/04/29 16:11:08;;;;;;;17.60;14.18;;;;;;;;;;10317734;28;20049;-59
2021/04/29 16:16:07;;;;;;;18.67;15.80;;;;;;;;;;10316811;28;20085;-59
2021/04/29 16:21:04;;;;;;;22.67;19.15;;;;;;;;;;10317079;28;20052;-60
2021/04/29 16:26:01;;;;;;;23.30;19.85;;;;;;;;;;10317563;28;20535;-59
2021/04/29 16:31:01;;;;;;;30.85;25.52;;;;;;;;;;10332239;28;20081;-59
2021/04/29 16:35:58;;;;;;;28.38;21.40;;;;;;;;;;10355235;28;20068;-60
2021/04/29 16:40:55;;;;;;;27.80;24.70;;;;;;;;;;10357294;28;20047;-59
2021/04/29 16:45:53;;;;;;;33.40;21.42;;;;;;;;;;10358074;28;20081;-59
2021/04/29 16:50:51;;;;;;;31.88;23.45;;;;;;;;;;10358118;28;20048;-59
2021/04/29 16:55:48;;;;;;;38.15;26.52;;;;;;;;;;10357296;28;20052;-59
2021/04/29 17:00:46;;;;;;;43.45;27.33;;;;;;;;;;10357463;28;20048;-59
2021/04/29 17:05:43;;;;;;;49.10;27.23;;;;;;;;;;10345531;28;20067;-59
2021/04/29 17:10:42;;;;;;;32.58;25.23;;;;;;;;;;10328829;28;20067;-59
2021/04/29 17:15:39;;;;;;;42.47;25.77;;;;;;;;;;10328291;28;20056;-58
2021/04/29 17:20:38;;;;;;;42.25;26.55;;;;;;;;;;10320734;28;20041;-59
2021/04/29 17:25:35;;;;;;;37.42;23.65;;;;;;;;;;10316767;28;20091;-58
2021/04/29 17:30:33;;;;;;;27.77;22.65;;;;;;;;;;10326146;28;20086;-59
2021/04/29 17:35:31;;;;;;;28.08;20.85;;;;;;;;;;10365708;28;20051;-60
2021/04/29 17:40:28;;;;;;;31.73;19.42;;;;;;;;;;10344731;28;20071;-59
2021/04/29 17:45:26;;;;;;;22.60;20.15;;;;;;;;;;10340019;28;20068;-60
2021/04/29 17:50:24;;;;;;;35.72;25.95;;;;;;;;;;10340519;28;20045;-58
2021/04/29 17:55:22;;;;;;;25.88;22.95;;;;;;;;;;10341260;28;20509;-60
2021/04/29 18:00:20;;;;;;;31.50;27.55;;;;;;;;;;10341398;28;20056;-60
2021/04/29 18:05:17;;;;;;;39.97;28.55;;;;;;;;;;10340279;28;20072;-59
2021/04/29 18:10:15;;;;;;;36.80;32.67;;;;;;;;;;10341717;28;20055;-59
2021/04/29 18:15:14;;;;;;;38.65;31.48;;;;;;;;;;10340982;28;20524;-60
2021/04/29 18:20:12;;;;;;;57.33;43.70;;;;;;;;;;10340914;28;20040;-61
2021/04/29 18:25:10;;;;;;;46.85;34.63;;;;;;;;;;10340877;28;20084;-61
2021/04/29 18:30:09;;;;;;;39.80;29.23;;;;;;;;;;10340843;28;20049;-60
2021/04/29 18:35:17;;;;;;;35.33;28.27;;;;;;;;;;10325581;28;20080;-60
2021/04/29 18:40:17;;;;;;;26.20;23.42;;;;;;;;;;10339933;28;20075;-60
2021/04/29 18:45:24;;;;;;;34.50;27.77;;;;;;;;;;10340251;28;20776;-61
2021/04/29 18:50:22;;;;;;;27.52;24.40;;;;;;;;;;10340418;28;20036;-60
2021/04/29 18:55:25;;;;;;;62.58;42.92;;;;;;;;;;10339698;28;20071;-60
2021/04/29 19:00:24;;;;;;;81.60;55.10;;;;;;;;;;10339012;28;20067;-60
2021/04/29 19:05:21;;;;;;;46.67;37.92;;;;;;;;;;10338939;28;20072;-60
2021/04/29 19:10:18;;;;;;;32.83;26.30;;;;;;;;;;10339388;28;20068;-60
2021/04/29 19:15:16;;;;;;;32.65;26.48;;;;;;;;;;10339141;28;20067;-60
2021/04/29 19:20:15;;;;;;;34.85;25.42;;;;;;;;;;10337430;28;20525;-60
2021/04/29 19:25:13;;;;;;;28.30;25.48;;;;;;;;;;10336958;28;20063;-60
2021/04/29 19:30:11;;;;;;;86.00;70.63;;;;;;;;;;10336907;28;20040;-60
2021/04/29 19:35:10;;;;;;;36.35;30.63;;;;;;;;;;10336079;28;20068;-61
2021/04/29 19:40:10;;;;;;;32.17;28.60;;;;;;;;;;10336958;28;20540;-61
2021/04/29 19:45:08;;;;;;;32.20;26.30;;;;;;;;;;10337048;28;20095;-61
2021/04/29 19:50:07;;;;;;;32.92;26.50;;;;;;;;;;10335785;28;20498;-60
2021/04/29 19:55:05;;;;;;;41.65;32.70;;;;;;;;;;10336141;28;20071;-61
2021/04/29 20:00:05;;;;;;;29.52;24.55;;;;;;;;;;10336145;28;20041;-60
2021/04/29 20:05:02;;;;;;;30.63;24.75;;;;;;;;;;10335970;28;20079;-60
2021/04/29 20:10:00;;;;;;;34.38;29.48;;;;;;;;;;10338133;28;20064;-55
2021/04/29 20:14:57;;;;;;;34.40;27.73;;;;;;;;;;10336009;28;20565;-59
2021/04/29 20:19:55;;;;;;;40.42;31.35;;;;;;;;;;10336376;28;20072;-59
2021/04/29 20:24:53;;;;;;;35.45;29.27;;;;;;;;;;10334899;28;20510;-59
2021/04/29 20:29:50;;;;;;;31.88;27.35;;;;;;;;;;10336253;28;20064;-60
2021/04/29 20:34:48;;;;;;;30.13;25.40;;;;;;;;;;10335501;28;20071;-60
2021/04/29 20:39:46;;;;;;;29.23;24.40;;;;;;;;;;10335962;28;20586;-60
2021/04/29 20:44:44;;;;;;;30.50;25.52;;;;;;;;;;10330781;28;20461;-59
2021/04/29 20:49:41;;;;;;;29.00;25.95;;;;;;;;;;10331829;28;20074;-60
2021/04/29 20:54:39;;;;;;;26.23;21.90;;;;;;;;;;10333730;28;20071;-60
2021/04/29 20:59:39;;;;;;;25.73;21.42;;;;;;;;;;10332959;28;20076;-60
2021/04/29 21:04:37;;;;;;;22.58;19.20;;;;;;;;;;10334228;28;20061;-60
2021/04/29 21:09:34;;;;;;;25.45;21.50;;;;;;;;;;10336073;28;20079;-61
2021/04/29 21:14:32;;;;;;;27.05;21.98;;;;;;;;;;10334034;28;20505;-59
2021/04/29 21:19:30;;;;;;;25.73;22.15;;;;;;;;;;10339727;28;20099;-59
2021/04/29 21:24:28;;;;;;;28.63;23.70;;;;;;;;;;10337380;28;20048;-59
2021/04/29 21:29:26;;;;;;;26.20;21.30;;;;;;;;;;10335222;28;20068;-60
2021/04/29 21:34:23;;;;;;;27.50;22.02;;;;;;;;;;10336852;28;20052;-59
2021/04/29 21:39:21;;;;;;;24.52;21.65;;;;;;;;;;10335701;28;20551;-60
2021/04/29 21:44:20;;;;;;;26.38;21.67;;;;;;;;;;10336081;28;20410;-60
2021/04/29 21:49:18;;;;;;;26.67;22.10;;;;;;;;;;10335873;28;20394;-59
2021/04/29 21:54:15;;;;;;;27.08;23.23;;;;;;;;;;10335163;28;20401;-60
2021/04/29 21:59:14;;;;;;;29.23;22.15;;;;;;;;;;10336329;28;20150;-60
2021/04/29 22:04:11;;;;;;;27.45;23.77;;;;;;;;;;10315343;28;20049;-60
2021/04/29 22:09:09;;;;;;;29.17;25.77;;;;;;;;;;10315372;28;20080;-60
2021/04/29 22:14:06;;;;;;;27.45;23.67;;;;;;;;;;10318384;28;20049;-59
2021/04/29 22:19:04;;;;;;;33.60;29.35;;;;;;;;;;10321829;28;20410;-60
2021/04/29 22:24:03;;;;;;;28.17;24.52;;;;;;;;;;10322246;28;20040;-60
2021/04/29 22:29:01;;;;;;;29.10;24.17;;;;;;;;;;10321586;28;20064;-60
2021/04/29 22:33:59;;;;;;;32.13;24.15;;;;;;;;;;10321639;28;20037;-60
2021/04/29 22:38:57;;;;;;;29.70;25.02;;;;;;;;;;10321038;28;20036;-60
2021/04/29 22:43:55;;;;;;;92.28;66.15;;;;;;;;;;10326656;28;20056;-60
2021/04/29 22:48:52;;;;;;;61.72;45.92;;;;;;;;;;10342341;28;20075;-60
2021/04/29 22:53:50;;;;;;;38.67;29.70;;;;;;;;;;10340710;28;20071;-60
2021/04/29 22:58:49;;;;;;;33.15;27.40;;;;;;;;;;10340784;28;20579;-60
2021/04/29 23:03:46;;;;;;;29.38;26.05;;;;;;;;;;10341103;28;20507;-60
2021/04/29 23:08:43;;;;;;;31.17;25.73;;;;;;;;;;10340193;28;20083;-60
2021/04/29 23:13:41;;;;;;;28.58;24.88;;;;;;;;;;10341520;28;20055;-60
2021/04/29 23:18:39;;;;;;;28.33;25.20;;;;;;;;;;10339607;28;20044;-60
2021/04/29 23:23:37;;;;;;;28.48;24.17;;;;;;;;;;10339387;28;20047;-60
2021/04/29 23:28:34;;;;;;;28.98;24.92;;;;;;;;;;10341181;28;20084;-60
2021/04/29 23:33:32;;;;;;;28.73;24.65;;;;;;;;;;10339535;28;20044;-60
2021/04/29 23:38:30;;;;;;;30.08;24.92;;;;;;;;;;10339035;28;20082;-60
2021/04/29 23:43:28;;;;;;;30.30;25.63;;;;;;;;;;10339803;28;20043;-60
2021/04/29 23:48:25;;;;;;;26.50;23.48;;;;;;;;;;10337280;28;20068;-60
2021/04/29 23:53:23;;;;;;;31.27;25.35;;;;;;;;;;10339939;28;20429;-60
2021/04/29 23:58:21;;;;;;;28.33;24.95;;;;;;;;;;10337393;28;20432;-60
